Time;durP1;ratioP1;P1;durP2;ratioP2;P2;SDS_P1;SDS_P2;PMS_P1;PMS_P2;Temp;Humidity;BMP_temperature;BMP_pressure;BME280_temperature;BME280_humidity;BME280_pressure;Samples;Min_cycle;Max_cycle;Signal;HPM_P1;HPM_P2
2022/08/31 00:05:46;;;;;;;14.67;13.13;;;15.60;99.90;;;;;;5074309;28;20183;-76
2022/08/31 00:08:15;;;;;;;14.37;12.87;;;15.60;99.90;;;;;;5074483;28;20642;-77
2022/08/31 00:10:46;;;;;;;15.33;12.80;;;15.60;99.90;;;;;;5074054;28;20191;-77
2022/08/31 00:13:17;;;;;;;13.67;12.37;;;15.60;99.90;;;;;;5074378;28;20314;-76
2022/08/31 00:15:47;;;;;;;14.67;13.00;;;15.60;99.90;;;;;;5073827;28;20691;-78
2022/08/31 00:18:16;;;;;;;14.07;12.67;;;15.60;99.90;;;;;;5073665;28;20640;-78
2022/08/31 00:20:45;;;;;;;15.73;12.97;;;15.60;99.90;;;;;;5070016;28;20199;-76
2022/08/31 00:23:16;;;;;;;16.33;13.40;;;15.60;99.90;;;;;;5073705;28;20306;-75
2022/08/31 00:25:47;;;;;;;13.77;12.37;;;15.70;99.90;;;;;;5073647;28;20265;-78
2022/08/31 00:28:17;;;;;;;14.73;12.90;;;15.70;99.90;;;;;;5073757;28;20290;-76
2022/08/31 00:30:47;;;;;;;13.77;12.30;;;15.70;99.90;;;;;;5073220;28;20319;-75
2022/08/31 00:33:15;;;;;;;14.57;13.07;;;15.70;99.90;;;;;;5073944;28;20207;-78
2022/08/31 00:35:44;;;;;;;14.47;12.87;;;15.70;99.90;;;;;;5073597;28;20215;-76
2022/08/31 00:38:13;;;;;;;14.50;13.00;;;15.80;99.90;;;;;;5079613;28;20262;-77
2022/08/31 00:40:44;;;;;;;16.70;13.00;;;15.80;99.90;;;;;;5074315;28;20208;-76
2022/08/31 00:43:13;;;;;;;12.77;11.47;;;15.80;99.90;;;;;;5074083;28;20223;-77
2022/08/31 00:45:41;;;;;;;13.03;11.70;;;15.80;99.90;;;;;;5075357;28;20307;-76
2022/08/31 00:48:11;;;;;;;13.23;11.93;;;15.70;99.90;;;;;;5073474;28;20294;-77
2022/08/31 00:50:39;;;;;;;12.77;11.47;;;15.70;99.90;;;;;;5073249;28;20232;-77
2022/08/31 00:53:07;;;;;;;12.03;10.83;;;15.70;99.90;;;;;;5072735;28;20231;-76
2022/08/31 00:55:37;;;;;;;12.67;11.37;;;15.80;99.90;;;;;;5073351;28;20275;-77
2022/08/31 00:58:09;;;;;;;12.47;11.07;;;15.70;99.90;;;;;;5073225;28;20277;-77
2022/08/31 01:00:39;;;;;;;13.87;11.60;;;15.70;99.90;;;;;;5073010;28;20234;-79
2022/08/31 01:03:09;;;;;;;12.97;11.50;;;15.70;99.90;;;;;;5073285;28;20212;-76
2022/08/31 01:05:40;;;;;;;13.13;11.20;;;15.70;99.90;;;;;;5073083;28;20649;-77
2022/08/31 01:08:08;;;;;;;14.90;11.13;;;15.70;99.90;;;;;;5073308;28;20616;-78
2022/08/31 01:10:39;;;;;;;13.23;11.03;;;15.70;99.90;;;;;;5072478;28;20288;-77
2022/08/31 01:13:11;;;;;;;13.43;12.03;;;15.70;99.90;;;;;;5073166;28;20211;-77
2022/08/31 01:15:44;;;;;;;12.03;10.70;;;15.80;99.90;;;;;;5072795;28;20315;-78
2022/08/31 01:18:12;;;;;;;15.13;11.73;;;15.90;99.90;;;;;;5072970;28;20199;-78
2022/08/31 01:20:55;;;;;;;11.37;10.00;;;15.80;99.90;;;;;;5072334;28;20208;-76
2022/08/31 01:23:29;;;;;;;11.90;10.47;;;15.80;99.90;;;;;;5071442;28;20692;-77
2022/08/31 01:25:58;;;;;;;13.03;11.20;;;15.80;99.90;;;;;;5072786;28;20286;-76
2022/08/31 01:28:26;;;;;;;12.40;11.10;;;15.80;99.90;;;;;;5072710;28;20212;-76
2022/08/31 01:31:00;;;;;;;11.70;10.43;;;15.80;99.90;;;;;;5071966;28;20353;-75
2022/08/31 01:33:29;;;;;;;11.40;10.30;;;15.90;99.90;;;;;;5072628;28;20596;-75
2022/08/31 01:35:59;;;;;;;11.23;10.13;;;15.90;99.90;;;;;;5071926;28;20207;-76
2022/08/31 01:38:29;;;;;;;13.00;11.10;;;15.90;99.90;;;;;;5072410;28;20233;-78
2022/08/31 01:41:00;;;;;;;14.33;10.57;;;15.90;99.90;;;;;;5071979;28;20699;-78
2022/08/31 01:43:30;;;;;;;12.53;10.83;;;15.90;99.90;;;;;;5072378;28;20239;-75
2022/08/31 01:45:58;;;;;;;12.27;10.47;;;15.90;99.90;;;;;;5072099;28;20382;-76
2022/08/31 01:48:27;;;;;;;12.30;10.97;;;15.90;99.90;;;;;;5072164;28;20624;-78
2022/08/31 01:50:55;;;;;;;13.43;10.43;;;15.90;99.90;;;;;;5072048;28;20570;-76
2022/08/31 01:53:23;;;;;;;11.67;10.43;;;15.90;99.90;;;;;;5071686;28;20302;-77
2022/08/31 01:55:53;;;;;;;14.10;10.50;;;15.90;99.90;;;;;;5072258;28;20198;-77
2022/08/31 01:58:21;;;;;;;12.93;10.87;;;16.00;99.90;;;;;;5072156;28;20397;-76
2022/08/31 02:00:49;;;;;;;11.73;10.53;;;16.00;99.90;;;;;;5071779;28;20227;-76
2022/08/31 02:03:17;;;;;;;14.13;10.80;;;16.00;99.90;;;;;;5072205;28;20214;-76
2022/08/31 02:05:46;;;;;;;10.90;9.80;;;16.00;99.90;;;;;;5072212;28;20229;-76
2022/08/31 02:08:14;;;;;;;14.83;10.40;;;16.00;99.90;;;;;;5071787;28;20632;-77
2022/08/31 02:10:43;;;;;;;11.20;10.10;;;15.90;99.90;;;;;;5071598;28;20311;-75
2022/08/31 02:13:12;;;;;;;12.60;10.23;;;15.90;99.90;;;;;;5072112;28;20657;-76
2022/08/31 02:15:40;;;;;;;12.00;10.80;;;15.90;99.90;;;;;;5072065;28;20207;-77
2022/08/31 02:18:08;;;;;;;13.13;10.17;;;15.90;99.90;;;;;;5071825;28;20250;-78
2022/08/31 02:20:39;;;;;;;11.40;9.97;;;15.90;99.90;;;;;;5071468;28;20207;-76
2022/08/31 02:23:07;;;;;;;15.23;10.83;;;15.90;99.90;;;;;;5071739;28;20219;-77
2022/08/31 02:25:35;;;;;;;12.27;10.00;;;15.90;99.90;;;;;;5071928;28;20594;-76
2022/08/31 02:28:04;;;;;;;12.20;10.57;;;15.90;99.90;;;;;;5071433;28;20269;-76
2022/08/31 02:30:33;;;;;;;11.50;10.40;;;15.90;99.90;;;;;;5071136;28;20227;-77
2022/08/31 02:33:01;;;;;;;11.60;10.40;;;15.90;99.90;;;;;;5071410;28;20557;-75
2022/08/31 02:35:34;;;;;;;14.07;10.67;;;15.90;99.90;;;;;;5071459;28;20203;-78
2022/08/31 02:38:02;;;;;;;12.50;10.47;;;15.90;99.90;;;;;;5071654;28;20235;-76
2022/08/31 02:40:31;;;;;;;12.67;11.10;;;15.90;99.90;;;;;;5071421;28;20235;-77
2022/08/31 02:42:59;;;;;;;11.37;10.23;;;15.90;99.90;;;;;;5071606;28;20689;-77
2022/08/31 02:45:27;;;;;;;13.10;10.17;;;15.90;99.90;;;;;;5071164;28;20302;-75
2022/08/31 02:47:57;;;;;;;12.80;11.17;;;15.80;99.90;;;;;;5074539;28;20325;-77
2022/08/31 02:50:25;;;;;;;11.50;10.30;;;15.80;99.90;;;;;;5074895;28;20658;-76
2022/08/31 02:52:55;;;;;;;13.57;11.70;;;15.80;99.90;;;;;;5075221;28;20630;-77
2022/08/31 02:55:23;;;;;;;13.70;11.07;;;15.80;99.90;;;;;;5065652;28;20232;-78
2022/08/31 02:57:53;;;;;;;14.00;10.97;;;15.80;99.90;;;;;;5055393;28;20208;-75
2022/08/31 03:00:23;;;;;;;12.33;11.03;;;15.80;99.90;;;;;;5055089;28;20227;-76
2022/08/31 03:02:51;;;;;;;13.10;11.70;;;15.80;99.90;;;;;;5055293;28;20673;-76
2022/08/31 03:05:21;;;;;;;15.07;11.67;;;15.80;99.90;;;;;;5055316;28;20265;-78
2022/08/31 03:07:49;;;;;;;12.57;11.17;;;15.80;99.90;;;;;;5055693;28;20212;-77
2022/08/31 03:10:20;;;;;;;12.40;11.10;;;15.80;99.90;;;;;;5054903;28;20223;-77
2022/08/31 03:12:49;;;;;;;12.43;10.93;;;15.80;99.90;;;;;;5055216;28;20292;-76
2022/08/31 03:15:17;;;;;;;12.40;11.07;;;15.80;99.90;;;;;;5054835;28;20721;-77
2022/08/31 03:17:48;;;;;;;14.60;10.70;;;15.80;99.90;;;;;;5055055;28;20299;-77
2022/08/31 03:20:17;;;;;;;16.10;12.23;;;15.80;99.90;;;;;;5055072;28;20220;-75
2022/08/31 03:22:46;;;;;;;15.10;12.20;;;15.80;99.90;;;;;;5055016;28;20251;-77
2022/08/31 03:25:16;;;;;;;13.70;11.93;;;15.80;99.90;;;;;;5055269;28;20207;-78
2022/08/31 03:27:45;;;;;;;13.50;11.67;;;15.80;99.90;;;;;;5057540;28;20208;-78
2022/08/31 03:30:16;;;;;;;15.57;13.30;;;15.80;99.90;;;;;;5054479;28;20314;-77
2022/08/31 03:32:44;;;;;;;14.57;12.70;;;15.80;99.90;;;;;;5054849;28;20210;-75
2022/08/31 03:35:13;;;;;;;14.97;12.50;;;15.80;99.90;;;;;;5055034;28;20219;-76
2022/08/31 03:37:42;;;;;;;15.23;12.30;;;15.80;99.90;;;;;;5054697;28;20240;-78
2022/08/31 03:40:12;;;;;;;16.50;12.63;;;15.70;99.90;;;;;;5054559;28;20642;-78
2022/08/31 03:42:43;;;;;;;13.63;12.00;;;15.80;99.90;;;;;;5054748;28;20215;-76
2022/08/31 03:45:12;;;;;;;13.27;11.90;;;15.80;99.90;;;;;;5054785;28;20557;-77
2022/08/31 03:47:40;;;;;;;13.00;11.70;;;15.70;99.90;;;;;;5073705;28;20239;-79
2022/08/31 03:50:14;;;;;;;15.60;12.97;;;15.70;99.90;;;;;;5074266;28;20233;-76
2022/08/31 03:52:42;;;;;;;14.07;12.67;;;15.70;99.90;;;;;;5074006;28;20192;-76
2022/08/31 03:55:12;;;;;;;15.50;13.33;;;15.70;99.90;;;;;;5074151;28;20196;-78
2022/08/31 03:57:41;;;;;;;14.37;12.97;;;15.70;99.90;;;;;;5073956;28;20669;-78
2022/08/31 04:00:10;;;;;;;16.07;13.63;;;15.70;99.90;;;;;;5071633;28;20725;-77
2022/08/31 04:02:39;;;;;;;14.03;12.00;;;15.70;99.90;;;;;;5073202;28;20242;-78
2022/08/31 04:05:08;;;;;;;14.67;13.10;;;15.70;99.90;;;;;;5073989;28;20695;-78
2022/08/31 04:07:37;;;;;;;16.93;13.30;;;15.70;99.90;;;;;;5074185;28;20242;-78
2022/08/31 04:10:12;;;;;;;16.37;12.93;;;15.70;99.90;;;;;;5074042;28;20220;-77
2022/08/31 04:12:41;;;;;;;16.20;14.03;;;15.70;99.90;;;;;;5073935;28;20314;-75
2022/08/31 04:15:12;;;;;;;16.43;13.40;;;15.70;99.90;;;;;;5074232;28;20281;-76
2022/08/31 04:17:40;;;;;;;14.77;12.77;;;15.70;99.90;;;;;;5073711;28;20276;-78
2022/08/31 04:20:09;;;;;;;16.70;13.50;;;15.70;99.90;;;;;;5073505;28;20207;-77
2022/08/31 04:22:37;;;;;;;15.87;13.43;;;15.70;99.90;;;;;;5073908;28;20247;-76
2022/08/31 04:25:09;;;;;;;15.40;13.80;;;15.70;99.90;;;;;;5074013;28;20294;-77
2022/08/31 04:27:38;;;;;;;20.00;15.33;;;15.60;99.90;;;;;;5073786;28;20207;-77
2022/08/31 04:30:08;;;;;;;16.87;15.07;;;15.60;99.90;;;;;;5073499;28;20640;-77
2022/08/31 04:32:37;;;;;;;21.93;14.73;;;15.60;99.90;;;;;;5073466;28;20708;-76
2022/08/31 04:35:07;;;;;;;16.57;14.37;;;15.70;99.90;;;;;;5055786;28;20238;-78
2022/08/31 04:37:35;;;;;;;15.93;14.13;;;15.60;99.90;;;;;;5053324;28;20274;-78
2022/08/31 04:40:04;;;;;;;20.10;14.90;;;15.60;99.90;;;;;;5053224;28;20228;-77
2022/08/31 04:42:35;;;;;;;17.27;14.97;;;15.60;99.90;;;;;;5053634;28;20204;-76
2022/08/31 04:45:06;;;;;;;16.47;14.20;;;15.60;99.90;;;;;;5062683;28;20208;-77
2022/08/31 04:47:34;;;;;;;18.43;14.10;;;15.70;99.90;;;;;;5073329;28;20238;-77
2022/08/31 04:50:03;;;;;;;16.87;15.13;;;15.70;99.90;;;;;;5072747;28;20295;-77
2022/08/31 04:52:31;;;;;;;18.70;15.40;;;15.70;99.90;;;;;;5072532;28;20863;-78
2022/08/31 04:54:59;;;;;;;17.93;14.50;;;15.70;99.90;;;;;;5073389;28;20602;-77
2022/08/31 04:57:27;;;;;;;15.90;14.20;;;15.70;99.90;;;;;;5073209;28;20745;-78
2022/08/31 04:59:55;;;;;;;15.77;14.20;;;15.80;99.90;;;;;;5072529;28;20248;-75
2022/08/31 05:02:25;;;;;;;16.43;13.77;;;15.80;99.90;;;;;;5072867;28;20200;-78
2022/08/31 05:04:53;;;;;;;18.27;14.30;;;15.80;99.90;;;;;;5072996;28;20203;-76
2022/08/31 05:07:21;;;;;;;16.70;13.20;;;15.90;99.90;;;;;;5073138;28;20199;-75
2022/08/31 05:09:50;;;;;;;16.27;13.03;;;15.90;99.90;;;;;;5072305;28;20208;-76
2022/08/31 05:12:18;;;;;;;16.20;13.03;;;16.00;99.90;;;;;;5072491;28;20269;-77
2022/08/31 05:14:47;;;;;;;15.77;12.93;;;16.00;99.90;;;;;;5072954;28;20223;-77
2022/08/31 05:17:15;;;;;;;16.67;12.90;;;16.00;99.90;;;;;;5072690;28;20669;-75
2022/08/31 05:19:45;;;;;;;15.20;12.80;;;16.10;99.90;;;;;;5072774;28;20235;-76
2022/08/31 05:22:13;;;;;;;14.23;12.23;;;16.10;99.90;;;;;;5072885;28;20711;-75
2022/08/31 05:24:42;;;;;;;14.47;12.77;;;16.20;99.90;;;;;;5072902;28;20207;-77
2022/08/31 05:27:10;;;;;;;16.53;12.47;;;16.20;99.90;;;;;;5072857;28;20212;-77
2022/08/31 05:29:38;;;;;;;15.97;12.07;;;16.30;99.90;;;;;;5072196;28;20481;-78
2022/08/31 05:32:07;;;;;;;12.90;10.67;;;16.30;99.90;;;;;;5072532;28;20303;-78
2022/08/31 05:34:38;;;;;;;15.83;12.30;;;16.30;99.90;;;;;;5072522;28;20230;-77
2022/08/31 05:37:11;;;;;;;17.13;12.10;;;16.40;99.90;;;;;;5072507;28;20298;-78
2022/08/31 05:39:40;;;;;;;15.93;12.90;;;16.40;99.90;;;;;;5072055;28;20740;-77
2022/08/31 05:42:14;;;;;;;15.20;12.50;;;16.40;99.90;;;;;;5072385;28;20271;-76
2022/08/31 05:44:42;;;;;;;14.87;12.00;;;16.40;99.90;;;;;;5072592;28;20235;-77
2022/08/31 05:47:10;;;;;;;14.67;11.20;;;16.40;99.90;;;;;;5072636;28;20286;-77
2022/08/31 05:49:38;;;;;;;14.50;11.23;;;16.40;99.90;;;;;;5072022;28;20211;-77
2022/08/31 05:52:08;;;;;;;15.53;11.97;;;16.40;99.90;;;;;;5071990;28;20270;-78
2022/08/31 05:54:39;;;;;;;14.10;12.10;;;16.40;99.90;;;;;;5071983;28;20650;-76
2022/08/31 05:57:08;;;;;;;15.80;12.10;;;16.50;99.90;;;;;;5072218;28;20222;-77
2022/08/31 05:59:38;;;;;;;16.33;11.53;;;16.50;99.90;;;;;;5071910;28;20252;-77
2022/08/31 06:02:16;;;;;;;14.53;11.57;;;16.50;99.90;;;;;;5069663;28;20200;-77
2022/08/31 06:04:45;;;;;;;14.73;12.03;;;16.60;99.90;;;;;;5068074;28;20207;-77
2022/08/31 06:07:13;;;;;;;13.47;12.03;;;16.60;99.90;;;;;;5071602;28;20214;-78
2022/08/31 06:09:43;;;;;;;19.23;12.37;;;16.60;99.90;;;;;;5071473;28;20235;-75
2022/08/31 06:12:13;;;;;;;14.77;12.40;;;16.60;99.90;;;;;;5059971;28;20224;-77
2022/08/31 06:14:41;;;;;;;16.10;11.90;;;16.70;99.90;;;;;;5070680;28;20257;-76
2022/08/31 06:17:15;;;;;;;14.87;11.30;;;16.70;99.90;;;;;;5054726;28;20203;-78
2022/08/31 06:19:43;;;;;;;14.60;11.73;;;16.70;99.90;;;;;;5052272;28;20212;-79
2022/08/31 06:22:11;;;;;;;15.03;11.27;;;16.80;99.90;;;;;;5065660;28;20223;-76
2022/08/31 06:24:39;;;;;;;16.27;11.93;;;16.80;99.90;;;;;;5063974;28;20591;-77
2022/08/31 06:27:09;;;;;;;13.17;11.47;;;16.90;99.90;;;;;;5051676;28;20568;-78
2022/08/31 06:29:37;;;;;;;14.27;11.77;;;16.90;99.90;;;;;;5050923;28;20251;-76
2022/08/31 06:32:11;;;;;;;13.27;11.13;;;16.90;99.90;;;;;;5051944;28;20235;-77
2022/08/31 06:34:41;;;;;;;12.30;10.67;;;17.00;99.90;;;;;;5051430;28;20239;-77
2022/08/31 06:37:11;;;;;;;14.47;10.87;;;17.00;99.90;;;;;;5051255;28;20682;-76
2022/08/31 06:39:46;;;;;;;15.60;10.73;;;17.10;99.90;;;;;;5051304;28;20207;-77
2022/08/31 06:42:16;;;;;;;14.03;11.00;;;17.10;99.90;;;;;;5060955;28;20200;-78
2022/08/31 06:44:44;;;;;;;14.73;10.87;;;17.10;99.90;;;;;;5071606;28;20242;-77
2022/08/31 06:47:12;;;;;;;14.67;12.10;;;17.10;99.90;;;;;;5071900;28;20317;-78
2022/08/31 06:49:41;;;;;;;14.60;10.57;;;17.10;99.90;;;;;;5071445;28;20231;-77
2022/08/31 06:52:09;;;;;;;16.57;10.80;;;17.00;99.90;;;;;;5070654;28;20247;-77
2022/08/31 06:54:39;;;;;;;14.17;11.10;;;17.10;99.90;;;;;;5071722;28;20585;-75
2022/08/31 06:57:07;;;;;;;14.93;10.63;;;17.20;99.90;;;;;;5065826;28;20446;-76
2022/08/31 06:59:36;;;;;;;14.83;9.83;;;17.30;99.90;;;;;;5051434;28;20208;-77
2022/08/31 07:02:05;;;;;;;13.80;11.10;;;17.30;99.90;;;;;;5051478;28;20326;-78
2022/08/31 07:04:35;;;;;;;13.33;10.60;;;17.30;99.90;;;;;;5051531;28;20204;-78
2022/08/31 07:07:05;;;;;;;13.33;10.03;;;17.40;99.90;;;;;;5051289;28;20561;-76
2022/08/31 07:09:34;;;;;;;13.60;10.07;;;17.50;99.90;;;;;;5051320;28;20303;-77
2022/08/31 07:12:04;;;;;;;14.17;11.03;;;17.60;99.90;;;;;;5051092;28;20683;-76
2022/08/31 07:14:36;;;;;;;16.00;10.70;;;17.60;99.90;;;;;;5051559;28;20204;-77
2022/08/31 07:17:07;;;;;;;16.07;10.93;;;17.60;99.90;;;;;;5051178;28;20645;-77
2022/08/31 07:19:35;;;;;;;15.27;10.70;;;17.60;99.90;;;;;;5051379;28;20234;-76
2022/08/31 07:22:08;;;;;;;15.83;11.07;;;17.60;99.90;;;;;;5051463;28;20277;-78
2022/08/31 07:24:42;;;;;;;14.60;10.53;;;17.60;99.90;;;;;;5051387;28;20709;-75
2022/08/31 07:27:15;;;;;;;13.63;9.90;;;17.60;99.90;;;;;;5051121;28;20304;-76
2022/08/31 07:29:43;;;;;;;17.03;10.53;;;17.60;99.90;;;;;;5051332;28;20223;-77
2022/08/31 07:32:21;;;;;;;15.77;10.07;;;17.70;99.90;;;;;;5051359;28;20224;-75
2022/08/31 07:34:54;;;;;;;17.87;10.57;;;17.70;99.90;;;;;;5054618;28;20197;-76
2022/08/31 07:43:09;;;;;;;12.07;9.93;;;17.90;99.90;;;;;;5074297;28;20638;-78
2022/08/31 07:45:38;;;;;;;14.40;10.47;;;18.00;99.90;;;;;;5075080;28;20215;-78
2022/08/31 07:48:08;;;;;;;15.23;10.63;;;18.00;99.90;;;;;;5075126;28;20231;-77
2022/08/31 07:50:43;;;;;;;11.93;10.60;;;18.00;99.90;;;;;;5074420;28;20384;-75
2022/08/31 07:53:13;;;;;;;14.37;10.70;;;18.10;99.90;;;;;;5074252;28;20302;-77
2022/08/31 07:55:44;;;;;;;12.47;9.90;;;18.10;99.90;;;;;;5075196;28;20216;-77
2022/08/31 07:58:14;;;;;;;13.33;9.83;;;18.20;99.90;;;;;;5074636;28;20196;-78
2022/08/31 08:00:46;;;;;;;11.37;10.17;;;18.40;99.90;;;;;;5073715;28;20207;-79
2022/08/31 08:03:16;;;;;;;12.73;10.60;;;18.30;99.90;;;;;;5075061;28;20192;-79
2022/08/31 08:05:46;;;;;;;10.97;9.70;;;18.40;99.90;;;;;;5074648;28;20213;-77
2022/08/31 08:08:15;;;;;;;13.43;10.13;;;18.50;99.90;;;;;;5075188;28;20207;-78
2022/08/31 08:10:47;;;;;;;14.07;9.57;;;18.60;99.90;;;;;;5073774;28;20231;-78
2022/08/31 08:13:21;;;;;;;11.73;9.43;;;18.60;99.90;;;;;;5068877;28;20224;-78
2022/08/31 08:16:15;;;;;;;14.77;9.50;;;18.80;99.90;;;;;;5071766;28;20211;-76
2022/08/31 08:18:45;;;;;;;11.87;9.40;;;19.10;99.90;;;;;;5074689;28;20207;-77
2022/08/31 08:21:13;;;;;;;11.77;9.37;;;19.10;99.90;;;;;;5063664;28;20208;-78
2022/08/31 08:23:43;;;;;;;13.53;9.63;;;19.10;99.90;;;;;;5072472;28;20202;-77
2022/08/31 08:26:12;;;;;;;12.47;9.60;;;19.20;99.90;;;;;;5073802;28;20207;-77
2022/08/31 08:28:49;;;;;;;11.43;9.00;;;19.30;99.90;;;;;;5073548;28;20199;-78
2022/08/31 08:31:21;;;;;;;10.00;8.63;;;19.50;99.90;;;;;;5073370;28;20276;-79
2022/08/31 08:33:52;;;;;;;11.13;8.43;;;19.70;99.90;;;;;;5071572;28;20273;-76
2022/08/31 08:36:21;;;;;;;10.93;8.63;;;19.90;99.90;;;;;;5093547;28;20552;-77
2022/08/31 08:38:52;;;;;;;10.90;8.53;;;20.00;99.90;;;;;;5055387;28;20239;-78
2022/08/31 08:41:23;;;;;;;10.80;7.77;;;20.10;99.90;;;;;;5075227;28;20195;-76
2022/08/31 08:43:54;;;;;;;11.87;8.57;;;20.30;99.90;;;;;;5074724;28;20242;-77
2022/08/31 08:46:29;;;;;;;10.47;8.63;;;20.40;99.90;;;;;;5077073;28;20353;-77
2022/08/31 08:49:29;;;;;;;10.53;8.43;;;20.40;99.90;;;;;;5074459;28;20218;-77
2022/08/31 08:52:02;;;;;;;11.60;8.70;;;20.30;99.90;;;;;;5075872;28;20206;-79
2022/08/31 08:54:34;;;;;;;10.30;8.20;;;20.00;99.90;;;;;;5074124;28;20676;-78
2022/08/31 08:57:11;;;;;;;11.63;8.97;;;20.00;99.90;;;;;;5073942;28;20645;-76
2022/08/31 08:59:40;;;;;;;14.10;8.73;;;19.90;99.90;;;;;;5073519;28;20325;-77
2022/08/31 09:02:12;;;;;;;10.23;8.20;;;20.10;99.90;;;;;;5073479;28;20507;-79
2022/08/31 09:05:17;;;;;;;12.27;9.30;;;20.10;99.90;;;;;;5073834;28;20215;-77
2022/08/31 09:08:09;;;;;;;11.60;8.33;;;20.00;99.90;;;;;;5058493;28;20290;-78
2022/08/31 09:10:44;;;;;;;10.40;7.70;;;20.20;99.90;;;;;;5073440;28;20210;-77
2022/08/31 09:13:24;;;;;;;11.20;6.93;;;20.30;99.90;;;;;;5073140;28;20251;-76
2022/08/31 09:16:04;;;;;;;8.97;6.37;;;20.40;99.90;;;;;;5072913;28;20645;-78
2022/08/31 09:18:45;;;;;;;7.70;5.83;;;20.50;99.90;;;;;;5073369;28;20307;-77
2022/08/31 09:21:20;;;;;;;10.17;6.43;;;20.50;99.90;;;;;;5073062;28;20188;-76
2022/08/31 09:23:58;;;;;;;9.63;7.07;;;20.20;99.90;;;;;;5074113;28;20240;-78
2022/08/31 09:26:26;;;;;;;9.60;6.63;;;20.30;99.90;;;;;;5073716;28;20565;-77
2022/08/31 09:28:55;;;;;;;9.43;6.17;;;20.30;99.90;;;;;;5072542;28;20689;-77
2022/08/31 09:31:35;;;;;;;10.43;5.50;;;20.20;99.90;;;;;;5073461;28;20219;-78
2022/08/31 09:34:09;;;;;;;7.27;6.07;;;20.40;99.90;;;;;;5076721;28;20247;-77
2022/08/31 09:36:40;;;;;;;9.33;6.20;;;20.40;99.90;;;;;;5072980;28;20299;-76
2022/08/31 09:39:17;;;;;;;10.07;6.30;;;20.40;99.90;;;;;;5090958;28;20373;-77
2022/08/31 09:41:46;;;;;;;8.47;6.43;;;20.50;99.90;;;;;;5092969;28;20285;-76
2022/08/31 09:44:23;;;;;;;10.77;6.60;;;20.30;99.90;;;;;;5092623;28;20192;-78
2022/08/31 09:46:55;;;;;;;10.00;6.17;;;20.50;99.90;;;;;;5092951;28;20299;-77
2022/08/31 09:49:27;;;;;;;9.47;5.93;;;20.70;99.90;;;;;;5092387;28;20252;-76
2022/08/31 09:52:18;;;;;;;7.97;6.30;;;20.70;99.90;;;;;;5092764;28;20218;-76
2022/08/31 09:55:12;;;;;;;8.93;6.30;;;20.80;99.90;;;;;;5092320;28;20269;-75
2022/08/31 09:57:51;;;;;;;9.63;6.20;;;20.70;99.90;;;;;;5092162;28;20642;-78
2022/08/31 10:00:37;;;;;;;7.80;6.40;;;20.60;99.90;;;;;;5092284;28;20309;-79
2022/08/31 10:03:17;;;;;;;8.87;6.33;;;20.70;99.90;;;;;;5092738;28;20288;-75
2022/08/31 10:05:47;;;;;;;8.90;6.10;;;20.90;99.90;;;;;;5092570;28;20565;-77
2022/08/31 10:08:38;;;;;;;9.47;6.63;;;20.60;99.90;;;;;;5092543;28;20214;-77
2022/08/31 10:11:13;;;;;;;9.63;6.73;;;20.40;99.90;;;;;;5092216;28;20255;-76
2022/08/31 10:13:56;;;;;;;10.60;6.13;;;20.30;99.90;;;;;;5092280;28;20234;-75
2022/08/31 10:16:34;;;;;;;8.50;6.10;;;20.30;99.90;;;;;;5092778;28;20191;-77
2022/08/31 10:19:06;;;;;;;9.13;6.23;;;20.20;99.90;;;;;;5091917;28;20191;-76
2022/08/31 10:21:43;;;;;;;9.70;6.33;;;20.00;99.90;;;;;;5092029;28;20302;-78
2022/08/31 10:24:27;;;;;;;8.00;6.23;;;19.80;99.90;;;;;;5092804;28;20198;-78
2022/08/31 10:27:07;;;;;;;11.00;7.40;;;19.20;99.90;;;;;;5092013;28;20187;-78
2022/08/31 10:29:40;;;;;;;11.00;7.07;;;18.90;99.90;;;;;;5092592;28;20221;-80
2022/08/31 10:32:30;;;;;;;12.67;7.30;;;18.50;99.90;;;;;;5092360;28;20613;-79
2022/08/31 10:35:07;;;;;;;7.43;5.63;;;18.30;99.90;;;;;;5092589;28;20218;-79
2022/08/31 10:37:53;;;;;;;9.43;5.73;;;17.80;99.90;;;;;;5091896;28;20698;-78
2022/08/31 10:40:30;;;;;;;8.73;6.00;;;17.60;99.90;;;;;;5092022;28;20191;-79
2022/08/31 10:43:10;;;;;;;9.00;5.87;;;17.30;99.90;;;;;;5092162;28;20206;-79
2022/08/31 10:45:42;;;;;;;9.37;6.43;;;17.20;99.90;;;;;;5091990;28;20195;-80
2022/08/31 10:48:12;;;;;;;8.70;6.60;;;17.10;99.90;;;;;;5091990;28;20633;-77
2022/08/31 10:50:51;;;;;;;8.53;5.93;;;16.90;99.90;;;;;;5091876;28;20287;-78
2022/08/31 10:53:36;;;;;;;8.30;6.07;;;16.70;99.90;;;;;;5091664;28;20207;-78
2022/08/31 10:56:19;;;;;;;7.40;5.73;;;16.60;99.90;;;;;;5091778;28;20234;-79
2022/08/31 10:59:13;;;;;;;11.10;5.97;;;16.40;99.90;;;;;;5091879;28;20672;-80
2022/08/31 11:01:51;;;;;;;8.67;6.03;;;16.40;99.90;;;;;;5089719;28;20684;-79
2022/08/31 11:04:52;;;;;;;8.87;6.50;;;16.40;99.90;;;;;;5091910;28;20230;-77
2022/08/31 11:07:36;;;;;;;8.50;6.83;;;16.40;99.90;;;;;;5092817;28;20228;-79
2022/08/31 11:10:19;;;;;;;10.23;7.13;;;16.40;99.90;;;;;;5095301;28;20222;-77
2022/08/31 11:12:55;;;;;;;11.27;7.47;;;16.40;99.90;;;;;;5095793;28;20693;-78
2022/08/31 11:16:03;;;;;;;9.77;7.93;;;16.30;99.90;;;;;;5095885;28;20230;-77
2022/08/31 11:18:56;;;;;;;11.33;7.43;;;16.40;99.90;;;;;;5090564;28;20210;-77
2022/08/31 11:21:51;;;;;;;11.93;7.77;;;16.40;99.90;;;;;;5095427;28;20206;-79
2022/08/31 11:24:44;;;;;;;12.03;8.17;;;16.50;99.90;;;;;;5093431;28;20242;-78
2022/08/31 11:27:24;;;;;;;17.00;8.73;;;16.60;99.90;;;;;;5093258;28;20551;-77
2022/08/31 11:29:59;;;;;;;12.27;8.17;;;16.70;99.90;;;;;;5095064;28;20241;-78
2022/08/31 11:32:33;;;;;;;11.43;8.63;;;16.70;99.90;;;;;;5095788;28;20201;-78
2022/08/31 11:35:07;;;;;;;11.17;8.30;;;16.80;99.90;;;;;;5095769;28;20215;-78
2022/08/31 11:37:53;;;;;;;10.00;8.40;;;16.80;99.90;;;;;;5095359;28;20202;-77
2022/08/31 11:40:57;;;;;;;11.30;8.33;;;16.70;99.90;;;;;;5095163;28;20229;-78
2022/08/31 11:44:03;;;;;;;9.40;7.50;;;16.60;99.90;;;;;;5095168;28;20281;-79
2022/08/31 11:47:01;;;;;;;8.93;7.60;;;16.60;99.90;;;;;;5032876;28;20239;-78
2022/08/31 11:49:54;;;;;;;9.20;8.13;;;16.60;99.90;;;;;;5032212;28;20210;-78
2022/08/31 11:52:43;;;;;;;10.57;7.70;;;16.60;99.90;;;;;;5086465;28;20622;-77
2022/08/31 11:55:25;;;;;;;11.90;9.23;;;16.60;99.90;;;;;;5094885;28;20275;-79
2022/08/31 11:58:32;;;;;;;8.37;6.97;;;16.50;99.90;;;;;;5096031;28;20283;-79
2022/08/31 12:01:29;;;;;;;9.73;7.10;;;16.20;99.90;;;;;;5094450;28;20245;-80
2022/08/31 12:04:03;;;;;;;9.03;6.60;;;16.20;99.90;;;;;;5094916;28;20215;-78
2022/08/31 12:07:07;;;;;;;8.40;7.20;;;16.10;99.90;;;;;;5095076;28;20191;-79
2022/08/31 12:10:17;;;;;;;10.47;7.13;;;16.00;99.90;;;;;;5094173;28;20191;-78
2022/08/31 12:13:17;;;;;;;9.47;6.83;;;16.00;99.90;;;;;;5094790;28;20300;-78
2022/08/31 12:16:37;;;;;;;10.03;7.40;;;15.90;99.90;;;;;;5094714;28;20211;-79
2022/08/31 12:25:41;;;;;;;9.30;6.40;;;16.00;99.90;;;;;;5095065;28;20210;-77
2022/08/31 12:28:18;;;;;;;8.33;6.97;;;16.10;99.90;;;;;;5098133;28;20222;-78
2022/08/31 12:30:59;;;;;;;9.97;8.17;;;16.20;99.90;;;;;;5094328;28;20229;-77
2022/08/31 12:33:29;;;;;;;8.80;7.70;;;16.30;99.90;;;;;;5094679;28;20207;-77
2022/08/31 12:36:14;;;;;;;9.53;7.30;;;16.30;99.90;;;;;;5094843;28;20300;-78
2022/08/31 12:38:42;;;;;;;9.53;7.10;;;16.30;99.90;;;;;;5094639;28;20219;-76
2022/08/31 12:41:12;;;;;;;10.83;8.70;;;16.30;99.90;;;;;;5094468;28;20280;-77
2022/08/31 12:43:44;;;;;;;9.57;7.30;;;16.40;99.90;;;;;;5094400;28;20215;-78
2022/08/31 12:46:38;;;;;;;8.07;7.27;;;16.40;99.90;;;;;;5094471;28;20656;-78
2022/08/31 12:49:48;;;;;;;9.87;7.67;;;16.40;99.90;;;;;;5093397;28;20625;-77
2022/08/31 12:52:29;;;;;;;11.33;8.23;;;16.40;99.90;;;;;;5078559;28;20238;-79
2022/08/31 12:55:22;;;;;;;10.23;7.60;;;16.30;99.90;;;;;;5094058;28;20226;-78
2022/08/31 12:58:11;;;;;;;11.17;8.67;;;16.30;99.90;;;;;;5093922;28;20223;-78
2022/08/31 13:00:42;;;;;;;10.80;7.90;;;16.30;99.90;;;;;;5093903;28;20282;-78
2022/08/31 13:03:18;;;;;;;12.53;8.77;;;16.40;99.90;;;;;;5094712;28;20608;-78
2022/08/31 13:06:02;;;;;;;13.07;8.73;;;16.40;99.90;;;;;;5094944;28;20211;-78
2022/08/31 13:08:35;;;;;;;10.63;8.83;;;16.20;99.90;;;;;;5093908;28;20260;-77
2022/08/31 13:11:22;;;;;;;10.03;8.50;;;16.20;99.90;;;;;;5093201;28;20226;-79
2022/08/31 13:14:17;;;;;;;10.27;8.97;;;16.20;99.90;;;;;;5094583;28;20274;-78
2022/08/31 13:16:48;;;;;;;11.43;8.93;;;16.30;99.90;;;;;;5093773;28;20211;-80
2022/08/31 13:19:24;;;;;;;12.67;9.63;;;16.40;99.90;;;;;;5093132;28;20206;-78
2022/08/31 13:21:56;;;;;;;9.60;8.60;;;16.40;99.90;;;;;;5093191;28;20237;-79
2022/08/31 13:24:29;;;;;;;11.60;8.90;;;16.50;99.90;;;;;;5093260;28;20211;-79